Pickwick Observed Data For Previous 48 Hours

Caption
Day and Hour Reservoir Elevation (behind dam)* Tailwater Elevation (below dam)* Average Hourly Discharge*
2/17/2019 1 AM CST 408.37 377.72 174,430
2/17/2019 2 AM CST 408.40 377.76 174,629
2/17/2019 3 AM CST 408.36 377.77 174,577
2/17/2019 4 AM CST 408.36 377.77 174,376
2/17/2019 5 AM CST 408.33 377.80 174,144
2/17/2019 6 AM CST 408.29 377.78 173,613
2/17/2019 7 AM CST 408.27 377.78 173,156
2/17/2019 8 AM CST 408.26 377.78 172,992
2/17/2019 9 AM CST 408.24 377.78 172,775
2/17/2019 10 AM CST 408.22 377.78 172,577
2/17/2019 11 AM CST 408.22 377.76 172,289
2/17/2019 12 PM CST 408.24 377.82 172,459
2/17/2019 1 PM CST 408.24 377.80 172,623
2/17/2019 2 PM CST 408.21 377.80 172,448
2/17/2019 3 PM CST 408.19 377.80 172,143
2/17/2019 4 PM CST 408.21 377.82 172,064
2/17/2019 5 PM CST 408.21 377.83 172,243
2/17/2019 6 PM CST 408.23 377.84 172,397
2/17/2019 7 PM CST 408.27 377.86 172,737
2/17/2019 8 PM CST 408.24 377.89 172,757
2/17/2019 9 PM CST 408.22 377.90 172,477
2/17/2019 10 PM CST 408.25 377.93 172,480
2/17/2019 11 PM CST 408.24 377.95 172,636
2/18/2019 12 AM CST 408.24 377.95 172,579
2/18/2019 1 AM CST 408.25 377.97 172,686
2/18/2019 2 AM CST 408.26 378.00 172,772
2/18/2019 3 AM CST 408.27 378.02 172,854
2/18/2019 4 AM CST 408.28 378.02 173,098
2/18/2019 5 AM CST 408.27 378.04 173,054
2/18/2019 6 AM CST 408.31 378.03 173,237
2/18/2019 7 AM CST 408.30 378.05 173,327
2/18/2019 8 AM CST 408.30 378.07 173,230
2/18/2019 9 AM CST 408.30 378.09 173,237
2/18/2019 10 AM CST 408.34 378.16 173,488
2/18/2019 11 AM CST 408.33 378.12 173,689
2/18/2019 12 PM CST 408.28 378.15 174,207
2/18/2019 1 PM CST 408.31 378.50 184,359
2/18/2019 2 PM CST 408.08 379.40 203,659
2/18/2019 3 PM CST 408.08 380.07 214,872
2/18/2019 4 PM CST 408.09 380.37 214,462
2/18/2019 5 PM CST 408.16 380.58 214,886
2/18/2019 6 PM CST 408.13 380.70 215,091
2/18/2019 7 PM CST 408.20 380.88 215,231
2/18/2019 8 PM CST 408.22 380.95 215,869
2/18/2019 9 PM CST 408.16 381.02 215,474
2/18/2019 10 PM CST 408.19 381.10 215,068
2/18/2019 11 PM CST 408.19 381.16 215,231

Elevations are in feet above sea level. Discharges are in cubic feet per second and are reported at the end of the hour.